Time;durP1;ratioP1;P1;durP2;ratioP2;P2;SDS_P1;SDS_P2;PMS_P1;PMS_P2;Temp;Humidity;BMP_temperature;BMP_pressure;BME280_temperature;BME280_humidity;BME280_pressure;Samples;Min_cycle;Max_cycle;Signal;HPM_P1;HPM_P2
2023/04/09 00:01:40;;;;;;;54.78;50.08;;;;;;;6.50;76.53;98987.34;4978396;28;20426;-76
2023/04/09 00:04:06;;;;;;;63.78;58.53;;;;;;;6.60;76.57;98988.66;4997353;28;20021;-76
2023/04/09 00:06:31;;;;;;;64.45;59.17;;;;;;;6.55;77.75;98993.75;5010730;28;20092;-76
2023/04/09 00:08:56;;;;;;;67.50;62.10;;;;;;;6.51;77.71;98989.81;4977968;28;20030;-75
2023/04/09 00:11:22;;;;;;;69.47;64.07;;;;;;;6.49;78.48;98986.50;4994210;28;20452;-75
2023/04/09 00:13:47;;;;;;;72.55;66.82;;;;;;;6.46;78.71;98981.59;4993551;28;20044;-76
2023/04/09 00:16:12;;;;;;;69.72;64.20;;;;;;;6.61;78.30;98978.75;4984169;28;20042;-75
2023/04/09 00:18:38;;;;;;;65.85;60.50;;;;;;;6.50;78.05;98976.66;4974764;28;20022;-75
2023/04/09 00:21:03;;;;;;;68.82;63.40;;;;;;;6.64;78.06;98989.06;4990950;28;20550;-75
2023/04/09 00:23:29;;;;;;;68.88;63.47;;;;;;;6.61;78.25;98984.09;5006911;28;20061;-75
2023/04/09 00:25:54;;;;;;;68.90;63.55;;;;;;;6.48;78.18;98984.88;5010501;28;20153;-77
2023/04/09 00:28:20;;;;;;;66.38;61.28;;;;;;;6.75;77.13;98985.78;4993997;28;20026;-75
2023/04/09 00:30:45;;;;;;;62.67;57.78;;;;;;;6.62;78.07;98986.59;4977935;28;20038;-76
2023/04/09 00:33:11;;;;;;;67.57;62.42;;;;;;;6.42;78.68;98985.66;5010052;28;20543;-75
2023/04/09 00:35:36;;;;;;;73.97;68.35;;;;;;;6.55;78.31;98990.25;5010548;28;20030;-76
2023/04/09 00:38:01;;;;;;;71.88;66.57;;;;;;;6.64;77.56;98992.56;4978004;28;20108;-76
2023/04/09 00:40:27;;;;;;;69.57;64.32;;;;;;;6.70;77.83;98980.22;5010410;28;20096;-76
2023/04/09 00:42:52;;;;;;;68.18;62.90;;;;;;;6.83;76.80;98988.31;4993620;28;20105;-76
2023/04/09 00:45:18;;;;;;;64.85;59.90;;;;;;;6.78;77.13;98986.25;4993958;28;20038;-76
2023/04/09 00:47:45;;;;;;;70.78;65.43;;;;;;;6.69;77.88;98986.63;4994109;28;20361;-76
2023/04/09 00:50:10;;;;;;;64.57;59.67;;;;;;;6.77;77.63;98989.94;4978161;28;20120;-76
2023/04/09 00:52:36;;;;;;;68.53;63.53;;;;;;;6.83;77.35;98989.16;5010122;28;20436;-76
2023/04/09 00:55:03;;;;;;;69.72;64.45;;;;;;;6.54;78.58;98984.06;4968315;28;20034;-75
2023/04/09 00:57:29;;;;;;;73.47;68.07;;;;;;;6.46;78.99;98980.75;4977116;28;20024;-75
2023/04/09 00:59:54;;;;;;;64.20;59.40;;;;;;;6.64;77.32;98984.53;4977693;28;20363;-75
2023/04/09 01:02:20;;;;;;;57.13;52.63;;;;;;;6.80;74.61;98989.53;4977468;28;20022;-74
2023/04/09 01:04:46;;;;;;;58.42;53.88;;;;;;;6.78;75.56;98988.91;4993530;28;20080;-74
2023/04/09 01:07:19;;;;;;;58.95;54.45;;;;;;;6.79;76.42;98982.50;4993598;28;20030;-74
2023/04/09 01:09:53;;;;;;;57.00;52.50;;;;;;;6.60;76.20;98985.97;4993771;28;20045;-73
2023/04/09 01:12:32;;;;;;;58.10;53.50;;;;;;;6.79;76.78;98989.75;4993678;28;20048;-73
2023/04/09 01:15:12;;;;;;;60.22;55.78;;;;;;;6.72;76.58;98992.38;4993424;28;20272;-73
2023/04/09 01:17:43;;;;;;;58.13;53.80;;;;;;;6.73;76.44;98980.66;4993833;28;20034;-73
2023/04/09 01:20:09;;;;;;;55.15;50.85;;;;;;;6.84;75.07;98985.41;4994123;28;20050;-73
2023/04/09 01:22:58;;;;;;;53.75;49.63;;;;;;;6.77;75.78;98979.22;4983252;28;20022;-73
2023/04/09 01:25:42;;;;;;;57.35;52.83;;;;;;;6.71;75.36;98982.72;4993832;28;20522;-75
2023/04/09 01:28:10;;;;;;;57.28;52.75;;;;;;;6.72;76.31;98981.66;4980890;28;20030;-75
2023/04/09 01:30:36;;;;;;;57.80;53.38;;;;;;;6.78;76.06;98980.88;4988715;28;20113;-74
2023/04/09 01:33:02;;;;;;;56.58;52.15;;;;;;;6.76;75.14;98985.63;4994972;28;20100;-73
2023/04/09 01:35:28;;;;;;;60.47;55.67;;;;;;;6.58;76.14;98987.19;4996981;28;20030;-74
2023/04/09 01:37:54;;;;;;;61.42;57.00;;;;;;;6.47;77.30;98975.19;4996910;28;20204;-74
2023/04/09 01:40:20;;;;;;;60.30;55.78;;;;;;;6.51;76.74;98979.09;4996906;28;20314;-74
2023/04/09 01:42:46;;;;;;;55.60;51.20;;;;;;;6.46;75.67;98981.59;5013124;28;20040;-74
2023/04/09 01:45:13;;;;;;;52.45;48.33;;;;;;;6.59;75.95;98986.16;4968757;28;20085;-74
2023/04/09 01:47:39;;;;;;;53.28;49.08;;;;;;;6.56;75.22;98987.38;4992239;28;20042;-74
2023/04/09 01:50:05;;;;;;;52.28;47.92;;;;;;;6.66;74.18;98982.47;5013109;28;20161;-74
2023/04/09 01:52:30;;;;;;;47.35;43.47;;;;;;;6.72;74.89;98987.03;4996537;28;20048;-73
2023/04/09 01:54:56;;;;;;;44.25;40.47;;;;;;;6.65;73.78;98990.72;4996302;28;20391;-73
2023/04/09 01:57:21;;;;;;;43.35;39.50;;;;;;;6.65;74.36;98985.38;4980392;28;20515;-73
2023/04/09 01:59:47;;;;;;;49.67;45.65;;;;;;;6.54;74.94;98989.44;4996555;28;20030;-73
2023/04/09 02:02:22;;;;;;;50.83;46.78;;;;;;;6.58;75.06;98987.19;5012627;28;20496;-73
2023/04/09 02:04:50;;;;;;;52.05;47.88;;;;;;;6.50;75.15;98982.81;4996330;28;20042;-73
2023/04/09 02:07:30;;;;;;;54.72;50.42;;;;;;;6.42;76.37;98985.66;4980140;28;20484;-74
2023/04/09 02:09:58;;;;;;;46.30;42.30;;;;;;;6.63;73.97;98988.22;4980251;28;20088;-74
2023/04/09 02:12:24;;;;;;;55.15;50.85;;;;;;;6.50;76.47;98982.81;4996320;28;20434;-74
2023/04/09 02:14:51;;;;;;;56.85;52.53;;;;;;;6.46;76.42;98980.75;4995915;28;20040;-74
2023/04/09 02:17:17;;;;;;;57.45;52.97;;;;;;;6.47;75.90;98982.38;4996211;28;20088;-73
2023/04/09 02:19:45;;;;;;;66.00;61.47;;;;;;;6.37;78.07;98988.09;4996217;28;20038;-74
2023/04/09 02:22:13;;;;;;;67.35;62.63;;;;;;;6.30;77.95;98981.91;5009315;28;20053;-74
2023/04/09 02:24:39;;;;;;;72.40;67.32;;;;;;;5.93;79.72;98979.59;5012252;28;20642;-74
2023/04/09 02:27:05;;;;;;;72.32;67.22;;;;;;;6.09;78.94;98979.31;5013516;28;20109;-74
2023/04/09 02:29:31;;;;;;;77.18;72.13;;;;;;;6.00;79.44;98981.31;4999879;28;20050;-74
2023/04/09 02:31:57;;;;;;;68.05;63.15;;;;;;;6.07;77.35;98986.69;5011615;28;20026;-72
2023/04/09 02:34:22;;;;;;;61.78;57.30;;;;;;;6.27;76.79;98984.97;5011949;28;20030;-73
2023/04/09 02:36:48;;;;;;;63.83;59.33;;;;;;;6.25;76.67;98979.81;5012113;28;20539;-72
2023/04/09 02:39:13;;;;;;;67.90;63.05;;;;;;;6.24;77.76;98983.53;4995794;28;20038;-73
2023/04/09 02:41:38;;;;;;;69.18;64.05;;;;;;;6.10;78.13;98980.97;4995727;28;20022;-72
2023/04/09 02:44:04;;;;;;;67.05;62.10;;;;;;;6.17;78.05;98984.50;5011790;28;20112;-73
2023/04/09 02:46:29;;;;;;;63.70;58.75;;;;;;;6.20;76.77;98970.75;4979361;28;20026;-72
2023/04/09 02:48:55;;;;;;;66.20;61.22;;;;;;;6.20;78.01;98976.09;4995763;28;20037;-72
2023/04/09 02:51:21;;;;;;;69.32;64.03;;;;;;;6.06;77.98;98985.06;5011941;28;20026;-73
2023/04/09 02:53:46;;;;;;;68.07;62.78;;;;;;;6.11;78.51;98977.28;5011403;28;20037;-73
2023/04/09 02:56:11;;;;;;;78.05;72.18;;;;;;;6.09;78.13;98980.13;4995270;28;20053;-73
2023/04/09 02:58:37;;;;;;;75.93;70.38;;;;;;;6.10;78.72;98980.97;4995382;28;20037;-74
2023/04/09 03:01:02;;;;;;;78.70;72.97;;;;;;;5.75;79.84;98992.59;5011616;28;20032;-73
2023/04/09 03:03:29;;;;;;;83.70;78.05;;;;;;;5.76;80.25;98983.59;4995061;28;20039;-73
2023/04/09 03:05:54;;;;;;;77.95;72.55;;;;;;;5.65;79.74;98982.25;4995389;28;20399;-73
2023/04/09 03:08:20;;;;;;;79.20;73.68;;;;;;;5.66;79.19;98977.75;4995151;28;20042;-73
2023/04/09 03:10:45;;;;;;;80.35;74.50;;;;;;;5.55;79.40;98982.59;5011525;28;20041;-73
2023/04/09 03:13:10;;;;;;;77.70;72.18;;;;;;;5.45;79.09;98982.09;5011249;28;20546;-75
2023/04/09 03:15:36;;;;;;;81.88;75.95;;;;;;;5.39;79.01;98974.84;4978936;28;20025;-75
2023/04/09 03:18:01;;;;;;;80.00;74.53;;;;;;;5.44;79.00;98975.09;4978998;28;20029;-76
2023/04/09 03:20:26;;;;;;;78.03;72.40;;;;;;;5.41;79.38;98972.81;4995052;28;20368;-76
2023/04/09 03:22:52;;;;;;;78.25;72.60;;;;;;;5.32;78.37;98965.16;4976020;28;20040;-75
2023/04/09 03:25:38;;;;;;;75.95;70.32;;;;;;;5.10;78.46;98972.34;4989651;28;20042;-76
2023/04/09 03:28:10;;;;;;;74.40;69.13;;;;;;;4.98;78.68;98973.84;4977397;28;20094;-76
2023/04/09 03:30:54;;;;;;;72.40;67.15;;;;;;;4.99;78.63;98974.69;4972782;28;20400;-76
2023/04/09 03:33:19;;;;;;;81.50;75.72;;;;;;;4.83;80.39;98968.56;4979645;28;20045;-76
2023/04/09 03:35:51;;;;;;;79.85;74.35;;;;;;;5.08;79.47;98979.72;4968352;28;20030;-76
2023/04/09 03:38:23;;;;;;;79.20;73.65;;;;;;;4.84;79.04;98978.22;4982287;28;20030;-75
2023/04/09 03:40:49;;;;;;;71.10;66.32;;;;;;;4.96;78.63;98978.56;5011079;28;20059;-75
2023/04/09 03:43:14;;;;;;;77.30;71.80;;;;;;;4.80;79.21;98981.47;4994457;28;20022;-74
2023/04/09 03:45:46;;;;;;;76.32;71.10;;;;;;;4.42;80.05;98982.63;5011159;28;20116;-74
2023/04/09 03:48:24;;;;;;;73.47;68.15;;;;;;;4.52;80.50;98983.16;4996000;28;20676;-74
2023/04/09 03:50:50;;;;;;;75.75;70.55;;;;;;;4.54;79.63;98976.63;4993367;28;20172;-75
2023/04/09 03:53:23;;;;;;;75.15;69.90;;;;;;;4.63;79.12;98977.34;4972668;28;20477;-75
2023/04/09 03:55:48;;;;;;;70.78;65.57;;;;;;;4.66;79.20;98979.66;4985821;28;20065;-74
2023/04/09 03:58:20;;;;;;;72.00;66.88;;;;;;;4.48;79.17;98982.69;5010883;28;20095;-74
2023/04/09 04:00:46;;;;;;;64.75;59.92;;;;;;;4.54;79.00;98986.47;4994616;28;20096;-73
2023/04/09 04:03:29;;;;;;;66.55;61.50;;;;;;;4.56;78.43;98989.78;4982726;28;20482;-74
2023/04/09 04:06:06;;;;;;;63.72;59.20;;;;;;;4.50;78.74;99002.03;5003977;28;20041;-73
2023/04/09 04:08:43;;;;;;;62.92;58.25;;;;;;;4.52;78.17;98996.50;5007127;28;20061;-74
2023/04/09 04:11:09;;;;;;;67.28;62.33;;;;;;;4.37;79.15;99001.00;5002705;28;20456;-74
2023/04/09 04:13:35;;;;;;;67.00;62.22;;;;;;;4.43;78.58;98992.28;4976410;28;20104;-73
2023/04/09 04:16:08;;;;;;;66.20;61.42;;;;;;;4.10;78.82;98995.34;4994915;28;20045;-73
2023/04/09 04:18:35;;;;;;;70.07;65.25;;;;;;;4.13;78.86;99005.63;4994434;28;20033;-73
2023/04/09 04:21:01;;;;;;;72.53;67.32;;;;;;;4.19;78.78;99002.25;5010598;28;20497;-74
2023/04/09 04:23:27;;;;;;;70.40;65.35;;;;;;;4.15;79.02;99003.59;4975023;28;20042;-75
2023/04/09 04:26:00;;;;;;;70.25;65.20;;;;;;;4.20;79.14;99005.75;4982283;28;20239;-75
2023/04/09 04:28:34;;;;;;;70.10;65.13;;;;;;;4.24;78.80;99012.34;4995268;28;20034;-74
2023/04/09 04:31:00;;;;;;;67.35;62.60;;;;;;;4.26;79.63;99014.81;4991097;28;20026;-75
2023/04/09 04:33:28;;;;;;;71.47;66.38;;;;;;;4.09;78.92;99007.00;4995823;23;20050;-75
2023/04/09 04:36:12;;;;;;;74.25;69.07;;;;;;;4.35;77.85;99013.72;4971374;28;20031;-75
2023/04/09 04:38:41;;;;;;;;;;;;;;;3.96;79.73;99014.81;4971842;28;20042;-74
2023/04/09 04:41:12;;;;;;;72.90;67.80;;;;;;;3.97;79.57;99021.78;4952812;28;19918;-74
2023/04/09 04:43:42;;;;;;;71.88;66.63;;;;;;;4.20;78.72;99017.19;4983803;28;20026;-74
2023/04/09 04:46:14;;;;;;;71.28;66.20;;;;;;;4.03;79.83;99023.75;4980666;28;20035;-75
2023/04/09 04:48:40;;;;;;;76.88;71.45;;;;;;;3.92;79.70;99024.16;4968020;28;20531;-74
2023/04/09 04:51:05;;;;;;;74.55;69.18;;;;;;;4.13;79.13;99021.63;4969527;28;20106;-73
2023/04/09 04:53:38;;;;;;;70.38;65.38;;;;;;;4.00;78.77;99026.75;4955847;28;20034;-74
2023/04/09 04:56:15;;;;;;;70.78;65.72;;;;;;;3.94;79.25;99021.34;4968564;28;20457;-74
2023/04/09 04:58:53;;;;;;;74.53;69.22;;;;;;;4.07;79.41;99037.50;4951417;28;20030;-75
2023/04/09 05:01:19;;;;;;;75.90;70.50;;;;;;;4.04;79.61;99022.72;4972355;28;20465;-75
2023/04/09 05:03:46;;;;;;;75.78;70.35;;;;;;;3.94;80.29;99032.84;4974636;28;20030;-75
2023/04/09 05:06:31;;;;;;;78.47;73.10;;;;;;;3.92;79.91;99026.84;4973914;28;20393;-76
2023/04/09 05:08:58;;;;;;;78.95;73.32;;;;;;;3.90;80.46;99025.34;4956454;28;20093;-75
2023/04/09 05:11:25;;;;;;;75.07;69.55;;;;;;;3.88;80.06;99028.22;4959037;28;20027;-74
2023/04/09 05:13:50;;;;;;;72.53;67.32;;;;;;;3.89;79.37;99018.38;4978406;28;20037;-76
2023/04/09 05:16:17;;;;;;;76.43;70.95;;;;;;;3.90;79.32;99028.84;4968845;28;20081;-76
2023/04/09 05:18:46;;;;;;;78.15;72.53;;;;;;;3.63;79.90;99029.44;4976201;28;20030;-76
2023/04/09 05:21:11;;;;;;;81.82;76.10;;;;;;;3.99;79.74;99038.41;4974900;28;20082;-75
2023/04/09 05:23:40;;;;;;;81.80;75.88;;;;;;;4.08;79.26;99042.66;4958944;28;20046;-76
2023/04/09 05:26:05;;;;;;;82.47;76.63;;;;;;;3.96;80.02;99029.97;4974778;28;20022;-76
2023/04/09 05:28:41;;;;;;;82.60;76.60;;;;;;;3.98;79.66;99030.63;4976049;28;20468;-76
2023/04/09 05:31:15;;;;;;;118.05;108.43;;;;;;;4.02;80.91;99035.41;4976381;28;20555;-76
2023/04/09 05:33:48;;;;;;;147.07;132.95;;;;;;;4.15;80.39;99040.09;4986627;28;20688;-76
2023/04/09 05:36:21;;;;;;;241.55;216.07;;;;;;;4.44;80.37;99044.59;4963598;28;20045;-76
2023/04/09 05:38:46;;;;;;;356.15;320.35;;;;;;;4.49;79.83;99052.88;4959090;28;20035;-76
2023/04/09 05:41:12;;;;;;;153.60;137.95;;;;;;;4.62;78.51;99027.19;4975442;28;20440;-75
2023/04/09 05:43:46;;;;;;;164.80;147.95;;;;;;;4.61;79.28;99040.72;4971370;28;20036;-76
2023/04/09 05:46:12;;;;;;;164.13;147.38;;;;;;;4.85;79.08;99048.44;4955906;28;20035;-76
2023/04/09 05:48:38;;;;;;;676.35;554.22;;;;;;;4.70;80.22;99044.94;4972573;28;20143;-74
2023/04/09 05:51:04;;;;;;;172.85;155.38;;;;;;;4.93;78.62;99050.97;4961334;28;20121;-74
2023/04/09 05:53:30;;;;;;;209.38;188.85;;;;;;;4.89;78.99;99047.03;4973807;28;20470;-74
2023/04/09 05:55:56;;;;;;;110.65;100.72;;;;;;;4.97;78.44;99046.91;4973905;28;20117;-74
2023/04/09 05:58:27;;;;;;;129.95;118.82;;;;;;;5.02;78.29;99039.16;4958377;28;20026;-74
2023/04/09 06:00:56;;;;;;;83.80;77.30;;;;;;;4.96;79.82;99044.44;4958162;28;20092;-74
2023/04/09 06:03:21;;;;;;;79.65;73.70;;;;;;;4.93;79.96;99039.47;4973601;28;20029;-74
2023/04/09 06:05:47;;;;;;;78.53;72.47;;;;;;;4.82;80.19;99043.47;4957678;28;20034;-74
2023/04/09 06:08:13;;;;;;;75.93;70.32;;;;;;;5.10;79.46;99046.25;4973756;28;20400;-74
2023/04/09 06:10:38;;;;;;;77.15;71.28;;;;;;;5.43;78.21;99045.59;4973739;28;20078;-74
2023/04/09 06:13:04;;;;;;;73.05;67.60;;;;;;;5.45;77.87;99051.56;4973001;28;20046;-75
2023/04/09 06:15:30;;;;;;;68.45;62.88;;;;;;;5.34;77.91;99044.06;4983413;28;20035;-74
2023/04/09 06:17:55;;;;;;;67.63;62.30;;;;;;;5.42;77.58;99053.75;4965116;28;20081;-75
2023/04/09 06:20:20;;;;;;;67.85;62.25;;;;;;;5.47;78.14;99054.03;4974643;28;20043;-74
2023/04/09 06:22:46;;;;;;;69.38;63.97;;;;;;;5.50;78.30;99059.81;4973367;28;20026;-74
2023/04/09 06:25:12;;;;;;;69.00;63.70;;;;;;;5.56;77.93;99064.41;4957139;28;20039;-74
2023/04/09 06:27:38;;;;;;;71.15;65.65;;;;;;;5.84;77.17;99052.91;4973489;28;20113;-75
2023/04/09 06:30:03;;;;;;;72.93;67.53;;;;;;;5.95;77.88;99063.13;4974617;28;20038;-74
2023/04/09 06:32:29;;;;;;;72.25;66.65;;;;;;;5.96;77.52;99060.25;4989587;28;20031;-74
2023/04/09 06:34:54;;;;;;;64.85;59.70;;;;;;;6.02;76.91;99056.00;4972864;28;20039;-75
2023/04/09 06:37:20;;;;;;;66.90;61.35;;;;;;;5.99;76.70;99070.56;4974454;28;20469;-75
2023/04/09 06:39:45;;;;;;;61.75;56.85;;;;;;;6.14;76.44;99068.63;4969981;28;20059;-77
2023/04/09 06:42:10;;;;;;;59.60;54.47;;;;;;;6.16;76.11;99076.47;4948389;28;20042;-75
2023/04/09 06:44:43;;;;;;;59.95;54.85;;;;;;;6.28;75.68;99069.53;4972555;28;20035;-75
2023/04/09 06:47:09;;;;;;;55.35;50.67;;;;;;;6.44;75.49;99063.88;4972854;28;20046;-75
2023/04/09 06:49:34;;;;;;;53.05;48.45;;;;;;;6.49;75.12;99071.34;4972817;28;20027;-75
2023/04/09 06:52:00;;;;;;;47.00;42.97;;;;;;;6.55;74.40;99070.53;4972933;28;20042;-75
2023/04/09 06:54:25;;;;;;;50.22;45.83;;;;;;;6.55;75.00;99066.00;4957395;28;20412;-74
2023/04/09 06:56:50;;;;;;;48.53;43.97;;;;;;;6.55;74.13;99066.00;4974319;28;20035;-74
2023/04/09 06:59:16;;;;;;;47.58;43.55;;;;;;;6.68;73.40;99066.06;4974157;28;20035;-74
2023/04/09 07:01:41;;;;;;;41.08;37.13;;;;;;;6.71;72.78;99075.56;4972955;28;20546;-74
2023/04/09 07:04:07;;;;;;;45.05;40.63;;;;;;;6.82;73.11;99067.78;4940447;28;20022;-74
2023/04/09 07:06:32;;;;;;;47.90;43.60;;;;;;;6.84;73.63;99064.91;4973688;28;20039;-74
2023/04/09 07:08:58;;;;;;;44.10;40.03;;;;;;;7.03;72.70;99072.19;4981946;28;20026;-74
2023/04/09 07:11:23;;;;;;;39.88;36.08;;;;;;;7.06;72.77;99073.66;4976622;28;20161;-74
2023/04/09 07:13:49;;;;;;;38.72;34.92;;;;;;;7.07;72.27;99069.97;4969343;28;20027;-75
2023/04/09 07:16:15;;;;;;;37.53;33.80;;;;;;;7.16;71.48;99068.75;4960282;28;20401;-74
2023/04/09 07:18:40;;;;;;;37.33;33.83;;;;;;;7.33;71.45;99073.53;4982661;28;20023;-75
2023/04/09 07:21:05;;;;;;;35.95;32.40;;;;;;;7.28;71.17;99077.88;4988682;28;20126;-74
2023/04/09 07:23:37;;;;;;;37.58;33.90;;;;;;;7.48;71.53;99068.84;4979074;28;20511;-74
2023/04/09 07:26:06;;;;;;;33.35;29.98;;;;;;;7.51;70.21;99068.41;4959520;28;20042;-76
2023/04/09 07:28:31;;;;;;;33.65;30.25;;;;;;;7.73;69.55;99081.66;4956282;28;20022;-76
2023/04/09 07:30:57;;;;;;;36.17;32.75;;;;;;;7.98;70.48;99083.53;4953162;28;20043;-76
2023/04/09 07:33:22;;;;;;;34.50;30.95;;;;;;;7.64;69.67;99081.03;4971602;28;20416;-76
2023/04/09 07:35:48;;;;;;;33.20;29.73;;;;;;;8.07;68.19;99074.25;4972346;28;20078;-76
2023/04/09 07:38:13;;;;;;;31.15;28.02;;;;;;;8.24;67.72;99080.00;4972346;28;20421;-76
2023/04/09 07:40:39;;;;;;;28.38;25.30;;;;;;;8.18;65.37;99080.84;4969094;28;20169;-76
2023/04/09 07:43:05;;;;;;;28.42;25.52;;;;;;;8.25;66.01;99066.41;4968215;28;20388;-75
2023/04/09 07:45:30;;;;;;;29.10;26.00;;;;;;;7.93;66.90;99077.97;4973661;28;20045;-77
2023/04/09 07:47:56;;;;;;;30.85;27.52;;;;;;;7.91;67.02;99082.69;4956003;28;20098;-75
2023/04/09 07:50:21;;;;;;;30.67;26.08;;;;;;;8.19;65.92;99077.16;4972151;28;20497;-75
2023/04/09 07:52:47;;;;;;;27.85;24.95;;;;;;;8.57;65.62;99080.00;4971918;28;20026;-75
2023/04/09 07:55:12;;;;;;;28.23;24.98;;;;;;;8.26;65.19;99067.28;4955747;28;20503;-75
2023/04/09 07:57:37;;;;;;;28.85;25.55;;;;;;;8.32;66.00;99069.09;4973462;28;20034;-75
2023/04/09 08:00:04;;;;;;;30.67;27.48;;;;;;;8.62;66.05;99077.50;4980838;28;20039;-75
2023/04/09 08:02:38;;;;;;;27.60;24.37;;;;;;;8.44;66.12;99071.97;4972049;28;20031;-75
2023/04/09 08:05:04;;;;;;;30.15;26.90;;;;;;;8.50;65.25;99077.31;4968574;28;20346;-75
2023/04/09 08:07:29;;;;;;;29.58;26.48;;;;;;;8.51;65.87;99075.47;4986717;28;20026;-75
2023/04/09 08:09:54;;;;;;;30.77;27.48;;;;;;;8.85;65.75;99067.09;4972119;28;20050;-74
2023/04/09 08:12:20;;;;;;;25.77;23.02;;;;;;;8.75;62.13;99069.44;4971829;28;20026;-74
2023/04/09 08:14:45;;;;;;;25.58;22.48;;;;;;;8.71;63.44;99068.19;4972781;28;20045;-74
2023/04/09 08:17:11;;;;;;;24.13;21.52;;;;;;;9.11;62.35;99072.38;4968258;28;20030;-74
2023/04/09 08:19:36;;;;;;;22.33;20.00;;;;;;;9.20;61.69;99070.28;4963718;28;20031;-74
2023/04/09 08:22:02;;;;;;;24.95;22.40;;;;;;;9.10;62.06;99069.94;4971815;28;20035;-75
2023/04/09 08:24:27;;;;;;;25.02;22.35;;;;;;;9.17;61.38;99066.16;4968357;28;20125;-75
2023/04/09 08:26:53;;;;;;;23.70;21.20;;;;;;;9.54;61.21;99068.03;4969661;28;20053;-75
2023/04/09 08:29:18;;;;;;;21.83;19.63;;;;;;;9.60;59.38;99072.53;4971685;28;20051;-75
2023/04/09 08:31:44;;;;;;;23.50;21.00;;;;;;;9.35;61.65;99079.72;4971523;28;20030;-75
2023/04/09 08:34:09;;;;;;;22.08;19.67;;;;;;;9.71;60.80;99069.16;4967973;28;20047;-76
2023/04/09 08:36:35;;;;;;;20.30;18.10;;;;;;;9.78;59.67;99073.69;4959677;28;20019;-76
2023/04/09 08:39:01;;;;;;;19.40;17.27;;;;;;;9.71;57.35;99074.53;4972148;28;20094;-76
2023/04/09 08:41:28;;;;;;;20.27;18.08;;;;;;;9.79;58.68;99075.31;4971693;28;20405;-76
2023/04/09 08:43:54;;;;;;;21.25;18.50;;;;;;;9.70;57.28;99075.59;4971984;28;20066;-77
2023/04/09 08:46:19;;;;;;;20.13;17.88;;;;;;;9.72;59.43;99075.34;4973027;28;20030;-76
2023/04/09 08:48:46;;;;;;;18.92;16.88;;;;;;;10.07;57.00;99078.41;4956910;28;20064;-78
2023/04/09 08:51:12;;;;;;;17.85;15.32;;;;;;;10.19;55.37;99074.00;4974442;28;20034;-77
2023/04/09 08:53:39;;;;;;;17.77;15.68;;;;;;;10.23;55.67;99069.81;4972849;28;20457;-76
2023/04/09 08:56:04;;;;;;;17.50;15.70;;;;;;;10.10;54.71;99067.22;4973200;28;20029;-76
2023/04/09 08:58:30;;;;;;;15.88;14.18;;;;;;;10.34;54.32;99071.78;4991425;28;20039;-76
2023/04/09 09:00:55;;;;;;;15.88;13.80;;;;;;;10.69;53.12;99062.09;4971786;28;20027;-77
2023/04/09 09:03:21;;;;;;;16.77;15.00;;;;;;;10.88;53.31;99076.41;4967252;28;20043;-76
2023/04/09 09:05:46;;;;;;;17.80;15.80;;;;;;;10.98;53.32;99074.84;4976346;28;20026;-76
2023/04/09 09:08:23;;;;;;;18.08;15.63;;;;;;;11.20;52.71;99063.59;4971912;28;20083;-76
2023/04/09 09:10:48;;;;;;;17.27;15.48;;;;;;;11.07;53.50;99064.56;4974073;28;20078;-76
2023/04/09 09:13:20;;;;;;;16.35;14.68;;;;;;;11.42;53.62;99056.63;4974570;28;20066;-77
2023/04/09 09:15:46;;;;;;;14.05;12.57;;;;;;;11.65;50.27;99062.13;4987959;28;20054;-76
2023/04/09 09:18:12;;;;;;;16.02;14.43;;;;;;;11.63;51.73;99058.81;4971571;28;20027;-77
2023/04/09 09:20:37;;;;;;;15.52;13.93;;;;;;;11.86;49.97;99058.91;4962974;28;20401;-76
2023/04/09 09:23:02;;;;;;;15.30;13.70;;;;;;;11.78;49.10;99064.66;4971316;28;20031;-76
2023/04/09 09:25:29;;;;;;;18.52;14.60;;;;;;;11.73;50.58;99059.97;4958313;28;20035;-76
2023/04/09 09:28:05;;;;;;;13.55;12.15;;;;;;;12.07;50.23;99061.06;4974558;28;20031;-76
2023/04/09 09:30:33;;;;;;;14.50;12.02;;;;;;;12.00;48.17;99060.38;4962854;28;20386;-76
2023/04/09 09:33:06;;;;;;;15.95;14.25;;;;;;;12.25;47.32;99058.28;4971893;28;20033;-76
2023/04/09 09:35:52;;;;;;;14.93;13.43;;;;;;;12.22;49.50;99058.75;4976142;28;20547;-74
2023/04/09 09:38:18;;;;;;;15.57;13.10;;;;;;;12.14;48.64;99061.78;4970956;28;20420;-74
2023/04/09 09:40:43;;;;;;;13.57;12.05;;;;;;;12.33;47.71;99071.44;4966114;28;20109;-74
2023/04/09 09:43:09;;;;;;;14.40;12.90;;;;;;;12.55;46.25;99062.75;4974092;28;20042;-74
2023/04/09 09:45:35;;;;;;;12.93;11.50;;;;;;;12.74;47.17;99064.28;4971123;28;20023;-75
2023/04/09 09:48:02;;;;;;;11.30;10.10;;;;;;;12.91;44.56;99065.16;4955235;28;20062;-75
2023/04/09 09:50:29;;;;;;;12.23;10.32;;;;;;;12.97;46.23;99064.22;4970890;28;20039;-75
2023/04/09 09:53:02;;;;;;;12.73;9.75;;;;;;;13.17;45.85;99064.69;4955893;28;20433;-75
2023/04/09 09:55:30;;;;;;;10.73;9.10;;;;;;;13.07;44.15;99064.47;4950863;28;20045;-75
2023/04/09 09:57:57;;;;;;;12.82;9.75;;;;;;;13.43;43.45;99072.25;4975396;28;20053;-74
2023/04/09 10:00:24;;;;;;;9.82;8.63;;;;;;;13.22;41.07;99059.38;4957986;28;20045;-74
2023/04/09 10:02:58;;;;;;;9.43;7.82;;;;;;;13.12;41.27;99067.28;4970547;28;20432;-75
2023/04/09 10:05:26;;;;;;;12.00;8.43;;;;;;;13.41;40.52;99068.97;4968217;28;20436;-75
2023/04/09 10:07:54;;;;;;;10.57;8.77;;;;;;;13.27;41.88;99056.78;4973921;28;20037;-75
2023/04/09 10:10:20;;;;;;;8.98;7.85;;;;;;;13.22;41.72;99053.13;4957956;28;20053;-75
2023/04/09 10:12:46;;;;;;;8.38;7.50;;;;;;;12.93;43.06;99049.53;4973997;28;20019;-75
2023/04/09 10:15:11;;;;;;;10.80;8.98;;;;;;;12.73;44.48;99054.50;4973527;28;20097;-75
2023/04/09 10:17:37;;;;;;;11.80;8.45;;;;;;;13.05;41.88;99047.63;4973888;28;20022;-75
2023/04/09 10:20:23;;;;;;;10.73;8.52;;;;;;;13.60;42.86;99051.47;4957643;28;20035;-75
2023/04/09 10:22:49;;;;;;;10.20;8.70;;;;;;;13.79;41.13;99049.38;4970222;28;20043;-75
2023/04/09 10:25:15;;;;;;;9.48;7.63;;;;;;;13.76;40.07;99044.44;4954345;29;20053;-74
2023/04/09 10:27:43;;;;;;;8.18;7.38;;;;;;;13.77;40.36;99038.75;4964671;28;20826;-75
2023/04/09 10:30:09;;;;;;;7.95;7.15;;;;;;;13.82;40.92;99046.97;4973641;28;20035;-75
2023/04/09 10:32:35;;;;;;;9.70;8.07;;;;;;;13.27;39.05;99045.94;4973467;28;20038;-75
2023/04/09 10:35:02;;;;;;;8.32;7.47;;;;;;;13.77;41.28;99041.47;4953838;29;20038;-75
2023/04/09 10:37:28;;;;;;;7.50;6.80;;;;;;;13.33;38.59;99038.75;4965513;28;20035;-75
2023/04/09 10:39:55;;;;;;;8.85;7.82;;;;;;;13.94;40.36;99040.66;4970129;28;20023;-74
2023/04/09 10:42:33;;;;;;;8.35;7.57;;;;;;;13.32;38.98;99031.69;4965321;28;20130;-75
2023/04/09 10:45:07;;;;;;;8.48;7.68;;;;;;;13.63;38.13;99029.31;4973035;28;20038;-75
2023/04/09 10:47:34;;;;;;;8.40;7.60;;;;;;;13.79;39.58;99023.09;4970669;28;20039;-75
2023/04/09 10:50:16;;;;;;;9.15;7.72;;;;;;;13.10;37.95;99023.41;5013251;23;20040;-75
2023/04/09 10:52:43;;;;;;;9.20;8.30;;;;;;;13.12;39.09;99026.69;5010229;28;20029;-75
2023/04/09 10:55:08;;;;;;;9.75;8.73;;;;;;;13.45;42.55;99021.41;5017258;28;20467;-74
2023/04/09 10:57:34;;;;;;;9.90;8.88;;;;;;;13.27;42.22;99029.72;4998294;28;20040;-74
2023/04/09 10:59:59;;;;;;;9.88;8.30;;;;;;;13.43;42.46;99028.13;4999189;28;20460;-75
2023/04/09 11:02:37;;;;;;;9.05;8.15;;;;;;;13.35;41.79;99031.22;5011138;28;20062;-75
2023/04/09 11:05:24;;;;;;;8.93;8.02;;;;;;;13.05;40.47;99025.97;5007090;28;20132;-75
2023/04/09 11:08:08;;;;;;;9.85;8.60;;;;;;;12.98;41.55;99028.00;4981734;28;20034;-75
2023/04/09 11:10:34;;;;;;;10.23;8.95;;;;;;;13.39;41.19;99025.09;4995747;28;20048;-74
2023/04/09 11:13:00;;;;;;;11.05;9.00;;;;;;;13.33;40.66;99027.91;5001527;28;20542;-74
2023/04/09 11:15:26;;;;;;;7.75;6.95;;;;;;;13.71;38.87;99018.09;5027947;28;20088;-75
2023/04/09 11:17:51;;;;;;;8.68;7.78;;;;;;;14.14;38.35;99013.94;5001212;28;20033;-75
2023/04/09 11:20:22;;;;;;;8.18;7.25;;;;;;;14.41;38.43;99021.16;5001733;28;20041;-74
2023/04/09 11:22:52;;;;;;;8.52;7.65;;;;;;;14.76;38.06;99006.44;4992606;28;20038;-74
2023/04/09 11:25:23;;;;;;;8.20;7.40;;;;;;;14.29;37.94;99016.84;5004976;28;20045;-75
2023/04/09 11:27:48;;;;;;;9.35;8.32;;;;;;;13.38;38.23;99004.50;5004278;28;20038;-74